Terminal Aerodrome Forecast
Issued by NWS Albany, NY

Home | Current Version | Previous Version | Text Only | Print | Product List | Glossary On
Versions: 1 2 3 4 5 6 7 8 9 10 11 12 13 14
837
FTUS41 KALY 271720
TAFPOU
TAF
KPOU 271720Z 2718/2818 VRB03KT P6SM FEW040 FEW250
     FM280100 00000KT P6SM SCT250
     FM281400 19005KT P6SM FEW050 SCT250=

USA.gov is the U.S. government's official web portal to all federal, state and local government web resources and services.